sensor_id;sensor_type;location;lat;lon;timestamp;P1;durP1;ratioP1;P2;durP2;ratioP2
2201;SDS011;1107;48.654;9.250;2023-08-01T00:01:28;4.00;;;3.70;;
2201;SDS011;1107;48.654;9.250;2023-08-01T00:03:55;4.57;;;4.37;;
2201;SDS011;1107;48.654;9.250;2023-08-01T00:06:22;4.10;;;3.90;;
2201;SDS011;1107;48.654;9.250;2023-08-01T00:08:50;4.60;;;4.17;;
2201;SDS011;1107;48.654;9.250;2023-08-01T00:11:16;4.27;;;3.97;;
2201;SDS011;1107;48.654;9.250;2023-08-01T00:13:43;4.93;;;4.50;;
2201;SDS011;1107;48.654;9.250;2023-08-01T00:16:12;4.30;;;4.10;;
2201;SDS011;1107;48.654;9.250;2023-08-01T00:18:39;4.67;;;4.20;;
2201;SDS011;1107;48.654;9.250;2023-08-01T00:21:06;4.47;;;4.27;;
2201;SDS011;1107;48.654;9.250;2023-08-01T00:23:35;4.67;;;4.37;;
2201;SDS011;1107;48.654;9.250;2023-08-01T00:26:02;4.30;;;4.00;;
2201;SDS011;1107;48.654;9.250;2023-08-01T00:28:29;4.50;;;4.20;;
2201;SDS011;1107;48.654;9.250;2023-08-01T00:31:03;4.80;;;4.50;;
2201;SDS011;1107;48.654;9.250;2023-08-01T00:33:32;4.50;;;4.20;;
2201;SDS011;1107;48.654;9.250;2023-08-01T00:35:59;4.77;;;4.47;;
2201;SDS011;1107;48.654;9.250;2023-08-01T00:38:26;4.47;;;4.17;;
2201;SDS011;1107;48.654;9.250;2023-08-01T00:40:53;4.87;;;4.47;;
2201;SDS011;1107;48.654;9.250;2023-08-01T00:43:20;4.73;;;4.43;;
2201;SDS011;1107;48.654;9.250;2023-08-01T00:45:46;4.70;;;4.40;;
2201;SDS011;1107;48.654;9.250;2023-08-01T00:48:14;4.57;;;4.20;;
2201;SDS011;1107;48.654;9.250;2023-08-01T00:50:43;4.33;;;4.13;;
2201;SDS011;1107;48.654;9.250;2023-08-01T00:53:10;4.30;;;3.90;;
2201;SDS011;1107;48.654;9.250;2023-08-01T00:55:38;4.60;;;4.13;;
2201;SDS011;1107;48.654;9.250;2023-08-01T00:58:06;4.87;;;4.57;;
2201;SDS011;1107;48.654;9.250;2023-08-01T01:00:33;4.93;;;4.60;;
2201;SDS011;1107;48.654;9.250;2023-08-01T01:03:00;4.10;;;3.90;;
2201;SDS011;1107;48.654;9.250;2023-08-01T01:05:27;4.47;;;4.10;;
2201;SDS011;1107;48.654;9.250;2023-08-01T01:08:02;4.07;;;3.77;;
2201;SDS011;1107;48.654;9.250;2023-08-01T01:10:30;4.40;;;4.10;;
2201;SDS011;1107;48.654;9.250;2023-08-01T01:12:57;3.93;;;3.63;;
2201;SDS011;1107;48.654;9.250;2023-08-01T01:15:27;4.73;;;4.43;;
2201;SDS011;1107;48.654;9.250;2023-08-01T01:17:54;4.40;;;4.20;;
2201;SDS011;1107;48.654;9.250;2023-08-01T01:20:23;4.23;;;4.03;;
2201;SDS011;1107;48.654;9.250;2023-08-01T01:22:52;4.80;;;4.30;;
2201;SDS011;1107;48.654;9.250;2023-08-01T01:25:20;4.87;;;4.57;;
2201;SDS011;1107;48.654;9.250;2023-08-01T01:27:49;4.10;;;3.80;;
2201;SDS011;1107;48.654;9.250;2023-08-01T01:30:17;4.20;;;3.97;;
2201;SDS011;1107;48.654;9.250;2023-08-01T01:32:45;4.30;;;4.10;;
2201;SDS011;1107;48.654;9.250;2023-08-01T01:35:12;4.10;;;3.90;;
2201;SDS011;1107;48.654;9.250;2023-08-01T01:37:39;5.60;;;4.80;;
2201;SDS011;1107;48.654;9.250;2023-08-01T01:40:08;4.27;;;4.00;;
2201;SDS011;1107;48.654;9.250;2023-08-01T01:42:36;4.60;;;4.33;;
2201;SDS011;1107;48.654;9.250;2023-08-01T01:45:03;4.57;;;4.17;;
2201;SDS011;1107;48.654;9.250;2023-08-01T01:47:31;4.63;;;4.33;;
2201;SDS011;1107;48.654;9.250;2023-08-01T01:49:58;4.23;;;3.93;;
2201;SDS011;1107;48.654;9.250;2023-08-01T01:52:25;4.40;;;4.20;;
2201;SDS011;1107;48.654;9.250;2023-08-01T01:54:51;4.70;;;4.47;;
2201;SDS011;1107;48.654;9.250;2023-08-01T01:57:20;4.50;;;4.30;;
2201;SDS011;1107;48.654;9.250;2023-08-01T01:59:47;4.83;;;4.43;;
2201;SDS011;1107;48.654;9.250;2023-08-01T02:02:14;4.90;;;4.60;;
2201;SDS011;1107;48.654;9.250;2023-08-01T02:04:40;4.50;;;4.20;;
2201;SDS011;1107;48.654;9.250;2023-08-01T02:07:07;4.13;;;3.83;;
2201;SDS011;1107;48.654;9.250;2023-08-01T02:09:34;4.07;;;3.87;;
2201;SDS011;1107;48.654;9.250;2023-08-01T02:12:01;4.53;;;4.13;;
2201;SDS011;1107;48.654;9.250;2023-08-01T02:14:31;4.60;;;4.30;;
2201;SDS011;1107;48.654;9.250;2023-08-01T02:16:58;4.10;;;3.90;;
2201;SDS011;1107;48.654;9.250;2023-08-01T02:19:24;5.10;;;4.60;;
2201;SDS011;1107;48.654;9.250;2023-08-01T02:21:52;4.57;;;4.17;;
2201;SDS011;1107;48.654;9.250;2023-08-01T02:24:19;4.63;;;4.33;;
2201;SDS011;1107;48.654;9.250;2023-08-01T02:26:46;4.90;;;4.50;;
2201;SDS011;1107;48.654;9.250;2023-08-01T02:29:14;4.70;;;4.40;;
2201;SDS011;1107;48.654;9.250;2023-08-01T02:31:42;4.37;;;4.10;;
2201;SDS011;1107;48.654;9.250;2023-08-01T02:34:09;4.40;;;4.10;;
2201;SDS011;1107;48.654;9.250;2023-08-01T02:36:36;4.80;;;4.50;;
2201;SDS011;1107;48.654;9.250;2023-08-01T02:39:05;4.50;;;4.20;;
2201;SDS011;1107;48.654;9.250;2023-08-01T02:41:32;3.70;;;3.50;;
2201;SDS011;1107;48.654;9.250;2023-08-01T02:43:59;5.00;;;4.50;;
2201;SDS011;1107;48.654;9.250;2023-08-01T02:46:26;4.13;;;3.93;;
2201;SDS011;1107;48.654;9.250;2023-08-01T02:48:56;4.47;;;4.10;;
2201;SDS011;1107;48.654;9.250;2023-08-01T02:51:23;4.43;;;4.07;;
2201;SDS011;1107;48.654;9.250;2023-08-01T02:53:50;3.97;;;3.77;;
2201;SDS011;1107;48.654;9.250;2023-08-01T02:56:17;8.13;;;4.10;;
2201;SDS011;1107;48.654;9.250;2023-08-01T02:58:44;4.50;;;4.30;;
2201;SDS011;1107;48.654;9.250;2023-08-01T03:01:11;4.43;;;3.90;;
2201;SDS011;1107;48.654;9.250;2023-08-01T03:03:38;4.00;;;3.70;;
2201;SDS011;1107;48.654;9.250;2023-08-01T03:06:08;4.57;;;4.27;;
2201;SDS011;1107;48.654;9.250;2023-08-01T03:08:34;3.90;;;3.50;;
2201;SDS011;1107;48.654;9.250;2023-08-01T03:11:01;4.67;;;4.30;;
2201;SDS011;1107;48.654;9.250;2023-08-01T03:13:30;4.37;;;4.10;;
2201;SDS011;1107;48.654;9.250;2023-08-01T03:15:56;3.70;;;3.50;;
2201;SDS011;1107;48.654;9.250;2023-08-01T03:18:23;4.33;;;4.00;;
2201;SDS011;1107;48.654;9.250;2023-08-01T03:20:50;4.47;;;4.27;;
2201;SDS011;1107;48.654;9.250;2023-08-01T03:23:19;5.20;;;4.90;;
2201;SDS011;1107;48.654;9.250;2023-08-01T03:25:46;4.50;;;4.20;;
2201;SDS011;1107;48.654;9.250;2023-08-01T03:28:13;4.07;;;3.87;;
2201;SDS011;1107;48.654;9.250;2023-08-01T03:30:40;4.50;;;4.20;;
2201;SDS011;1107;48.654;9.250;2023-08-01T03:33:07;4.17;;;3.90;;
2201;SDS011;1107;48.654;9.250;2023-08-01T03:35:33;4.40;;;4.10;;
2201;SDS011;1107;48.654;9.250;2023-08-01T03:38:00;4.70;;;4.50;;
2201;SDS011;1107;48.654;9.250;2023-08-01T03:40:29;4.03;;;3.80;;
2201;SDS011;1107;48.654;9.250;2023-08-01T03:42:56;5.50;;;4.57;;
2201;SDS011;1107;48.654;9.250;2023-08-01T03:45:23;4.53;;;4.23;;
2201;SDS011;1107;48.654;9.250;2023-08-01T03:47:49;4.83;;;4.53;;
2201;SDS011;1107;48.654;9.250;2023-08-01T03:50:16;4.70;;;4.40;;
2201;SDS011;1107;48.654;9.250;2023-08-01T03:52:43;4.90;;;4.50;;
2201;SDS011;1107;48.654;9.250;2023-08-01T03:55:11;4.67;;;4.37;;
2201;SDS011;1107;48.654;9.250;2023-08-01T03:57:39;3.77;;;3.57;;
2201;SDS011;1107;48.654;9.250;2023-08-01T04:00:08;4.77;;;4.47;;
2201;SDS011;1107;48.654;9.250;2023-08-01T04:02:38;4.50;;;4.20;;
2201;SDS011;1107;48.654;9.250;2023-08-01T04:05:06;4.13;;;3.83;;
2201;SDS011;1107;48.654;9.250;2023-08-01T04:07:34;4.57;;;4.27;;
2201;SDS011;1107;48.654;9.250;2023-08-01T04:10:02;4.50;;;4.30;;
2201;SDS011;1107;48.654;9.250;2023-08-01T04:12:29;4.23;;;3.90;;
2201;SDS011;1107;48.654;9.250;2023-08-01T04:14:58;4.60;;;4.30;;
2201;SDS011;1107;48.654;9.250;2023-08-01T04:17:25;4.80;;;4.47;;
2201;SDS011;1107;48.654;9.250;2023-08-01T04:19:54;4.30;;;3.93;;
2201;SDS011;1107;48.654;9.250;2023-08-01T04:22:21;4.20;;;4.00;;
2201;SDS011;1107;48.654;9.250;2023-08-01T04:24:48;4.30;;;4.10;;
2201;SDS011;1107;48.654;9.250;2023-08-01T04:27:15;4.20;;;4.00;;
2201;SDS011;1107;48.654;9.250;2023-08-01T04:29:42;7.80;;;4.00;;
2201;SDS011;1107;48.654;9.250;2023-08-01T04:32:10;3.40;;;3.20;;
2201;SDS011;1107;48.654;9.250;2023-08-01T04:34:39;4.23;;;3.93;;
2201;SDS011;1107;48.654;9.250;2023-08-01T04:37:06;4.80;;;4.40;;
2201;SDS011;1107;48.654;9.250;2023-08-01T04:39:33;4.60;;;4.30;;
2201;SDS011;1107;48.654;9.250;2023-08-01T04:42:00;4.17;;;3.97;;
2201;SDS011;1107;48.654;9.250;2023-08-01T04:44:27;3.97;;;3.67;;
2201;SDS011;1107;48.654;9.250;2023-08-01T04:46:54;6.53;;;4.30;;
2201;SDS011;1107;48.654;9.250;2023-08-01T04:49:23;5.70;;;4.00;;
2201;SDS011;1107;48.654;9.250;2023-08-01T04:51:50;4.60;;;4.20;;
2201;SDS011;1107;48.654;9.250;2023-08-01T04:54:17;8.20;;;4.33;;
2201;SDS011;1107;48.654;9.250;2023-08-01T04:56:44;4.37;;;4.17;;
2201;SDS011;1107;48.654;9.250;2023-08-01T04:59:11;4.40;;;4.10;;
2201;SDS011;1107;48.654;9.250;2023-08-01T05:01:38;4.47;;;3.97;;
2201;SDS011;1107;48.654;9.250;2023-08-01T05:04:05;5.57;;;3.93;;
2201;SDS011;1107;48.654;9.250;2023-08-01T05:06:33;4.93;;;4.63;;
2201;SDS011;1107;48.654;9.250;2023-08-01T05:09:00;4.70;;;4.27;;
2201;SDS011;1107;48.654;9.250;2023-08-01T05:11:27;5.00;;;4.60;;
2201;SDS011;1107;48.654;9.250;2023-08-01T05:13:54;5.27;;;4.87;;
2201;SDS011;1107;48.654;9.250;2023-08-01T05:16:21;6.50;;;4.33;;
2201;SDS011;1107;48.654;9.250;2023-08-01T05:18:48;4.67;;;4.47;;
2201;SDS011;1107;48.654;9.250;2023-08-01T05:21:15;5.20;;;4.80;;
2201;SDS011;1107;48.654;9.250;2023-08-01T05:23:43;5.10;;;4.70;;
2201;SDS011;1107;48.654;9.250;2023-08-01T05:26:10;5.00;;;4.60;;
2201;SDS011;1107;48.654;9.250;2023-08-01T05:28:37;4.70;;;4.30;;
2201;SDS011;1107;48.654;9.250;2023-08-01T05:31:04;4.83;;;4.53;;
2201;SDS011;1107;48.654;9.250;2023-08-01T05:33:31;5.13;;;4.50;;
2201;SDS011;1107;48.654;9.250;2023-08-01T05:35:58;5.47;;;5.10;;
2201;SDS011;1107;48.654;9.250;2023-08-01T05:38:24;4.50;;;4.30;;
2201;SDS011;1107;48.654;9.250;2023-08-01T05:40:53;4.77;;;4.47;;
2201;SDS011;1107;48.654;9.250;2023-08-01T05:43:20;4.90;;;4.50;;
2201;SDS011;1107;48.654;9.250;2023-08-01T05:45:47;4.73;;;4.40;;
2201;SDS011;1107;48.654;9.250;2023-08-01T05:48:13;5.17;;;4.77;;
2201;SDS011;1107;48.654;9.250;2023-08-01T05:50:40;4.90;;;4.60;;
2201;SDS011;1107;48.654;9.250;2023-08-01T05:53:07;4.80;;;4.50;;
2201;SDS011;1107;48.654;9.250;2023-08-01T05:55:34;4.83;;;4.63;;
2201;SDS011;1107;48.654;9.250;2023-08-01T05:58:03;4.90;;;4.60;;
2201;SDS011;1107;48.654;9.250;2023-08-01T06:00:29;5.67;;;5.10;;
2201;SDS011;1107;48.654;9.250;2023-08-01T06:02:56;3.70;;;3.40;;
2201;SDS011;1107;48.654;9.250;2023-08-01T06:05:23;4.53;;;4.23;;
2201;SDS011;1107;48.654;9.250;2023-08-01T06:07:50;3.77;;;3.50;;
2201;SDS011;1107;48.654;9.250;2023-08-01T06:10:17;4.20;;;3.90;;
2201;SDS011;1107;48.654;9.250;2023-08-01T06:12:44;9.33;;;3.13;;
2201;SDS011;1107;48.654;9.250;2023-08-01T06:15:13;8.83;;;4.17;;
2201;SDS011;1107;48.654;9.250;2023-08-01T06:17:40;7.03;;;3.47;;
2201;SDS011;1107;48.654;9.250;2023-08-01T06:20:07;4.37;;;4.07;;
2201;SDS011;1107;48.654;9.250;2023-08-01T06:22:35;3.90;;;3.10;;
2201;SDS011;1107;48.654;9.250;2023-08-01T06:25:02;3.60;;;3.20;;
2201;SDS011;1107;48.654;9.250;2023-08-01T06:27:29;3.70;;;3.50;;
2201;SDS011;1107;48.654;9.250;2023-08-01T06:29:56;9.80;;;4.20;;
2201;SDS011;1107;48.654;9.250;2023-08-01T06:32:24;3.50;;;2.90;;
2201;SDS011;1107;48.654;9.250;2023-08-01T06:34:51;4.00;;;3.10;;
2201;SDS011;1107;48.654;9.250;2023-08-01T06:37:18;4.03;;;3.73;;
2201;SDS011;1107;48.654;9.250;2023-08-01T06:39:45;3.57;;;3.33;;
2201;SDS011;1107;48.654;9.250;2023-08-01T06:42:12;3.90;;;3.60;;
2201;SDS011;1107;48.654;9.250;2023-08-01T06:44:41;3.80;;;3.53;;
2201;SDS011;1107;48.654;9.250;2023-08-01T06:47:08;6.40;;;4.00;;
2201;SDS011;1107;48.654;9.250;2023-08-01T06:49:36;4.50;;;3.83;;
2201;SDS011;1107;48.654;9.250;2023-08-01T06:52:03;4.20;;;4.00;;
2201;SDS011;1107;48.654;9.250;2023-08-01T06:54:31;4.50;;;4.30;;
2201;SDS011;1107;48.654;9.250;2023-08-01T06:56:58;6.20;;;3.90;;
2201;SDS011;1107;48.654;9.250;2023-08-01T06:59:25;4.40;;;4.20;;
2201;SDS011;1107;48.654;9.250;2023-08-01T07:01:52;4.67;;;4.37;;
2201;SDS011;1107;48.654;9.250;2023-08-01T07:04:19;4.70;;;4.40;;
2201;SDS011;1107;48.654;9.250;2023-08-01T07:06:48;4.87;;;4.40;;
2201;SDS011;1107;48.654;9.250;2023-08-01T07:09:15;5.80;;;5.20;;
2201;SDS011;1107;48.654;9.250;2023-08-01T07:11:42;4.87;;;4.57;;
2201;SDS011;1107;48.654;9.250;2023-08-01T07:14:09;5.20;;;4.90;;
2201;SDS011;1107;48.654;9.250;2023-08-01T07:16:35;5.65;;;5.43;;
2201;SDS011;1107;48.654;9.250;2023-08-01T07:19:02;5.73;;;5.23;;
2201;SDS011;1107;48.654;9.250;2023-08-01T07:21:29;5.73;;;5.23;;
2201;SDS011;1107;48.654;9.250;2023-08-01T07:23:57;6.00;;;5.70;;
2201;SDS011;1107;48.654;9.250;2023-08-01T07:26:24;5.90;;;5.50;;
2201;SDS011;1107;48.654;9.250;2023-08-01T07:28:53;6.60;;;6.20;;
2201;SDS011;1107;48.654;9.250;2023-08-01T07:31:20;6.27;;;5.87;;
2201;SDS011;1107;48.654;9.250;2023-08-01T07:33:47;7.07;;;6.57;;
2201;SDS011;1107;48.654;9.250;2023-08-01T07:36:14;6.20;;;5.90;;
2201;SDS011;1107;48.654;9.250;2023-08-01T07:38:41;5.30;;;5.00;;
2201;SDS011;1107;48.654;9.250;2023-08-01T07:41:09;5.80;;;5.30;;
2201;SDS011;1107;48.654;9.250;2023-08-01T07:43:36;5.97;;;5.60;;
2201;SDS011;1107;48.654;9.250;2023-08-01T07:46:03;5.80;;;5.50;;
2201;SDS011;1107;48.654;9.250;2023-08-01T07:48:30;5.60;;;5.30;;
2201;SDS011;1107;48.654;9.250;2023-08-01T07:50:57;5.87;;;5.57;;
2201;SDS011;1107;48.654;9.250;2023-08-01T07:53:24;5.67;;;5.37;;
2201;SDS011;1107;48.654;9.250;2023-08-01T07:55:51;5.30;;;4.97;;
2201;SDS011;1107;48.654;9.250;2023-08-01T07:58:20;6.33;;;5.93;;
2201;SDS011;1107;48.654;9.250;2023-08-01T08:00:46;5.67;;;4.93;;
2201;SDS011;1107;48.654;9.250;2023-08-01T08:03:14;4.23;;;3.93;;
2201;SDS011;1107;48.654;9.250;2023-08-01T08:05:41;5.03;;;4.73;;
2201;SDS011;1107;48.654;9.250;2023-08-01T08:08:08;4.50;;;4.30;;
2201;SDS011;1107;48.654;9.250;2023-08-01T08:10:34;5.50;;;5.00;;
2201;SDS011;1107;48.654;9.250;2023-08-01T08:13:01;5.03;;;4.30;;
2201;SDS011;1107;48.654;9.250;2023-08-01T08:15:30;4.13;;;3.93;;
2201;SDS011;1107;48.654;9.250;2023-08-01T08:17:59;5.10;;;4.80;;
2201;SDS011;1107;48.654;9.250;2023-08-01T08:20:29;4.30;;;4.10;;
2201;SDS011;1107;48.654;9.250;2023-08-01T08:22:56;5.60;;;5.20;;
2201;SDS011;1107;48.654;9.250;2023-08-01T08:25:23;4.77;;;4.47;;
2201;SDS011;1107;48.654;9.250;2023-08-01T08:27:50;4.80;;;4.60;;
2201;SDS011;1107;48.654;9.250;2023-08-01T08:30:17;4.50;;;4.30;;
2201;SDS011;1107;48.654;9.250;2023-08-01T08:32:45;5.63;;;5.23;;
2201;SDS011;1107;48.654;9.250;2023-08-01T08:35:12;5.20;;;4.37;;
2201;SDS011;1107;48.654;9.250;2023-08-01T08:37:39;5.50;;;5.20;;
2201;SDS011;1107;48.654;9.250;2023-08-01T08:40:06;4.97;;;4.67;;
2201;SDS011;1107;48.654;9.250;2023-08-01T08:42:34;5.13;;;4.67;;
2201;SDS011;1107;48.654;9.250;2023-08-01T08:45:01;5.00;;;4.70;;
2201;SDS011;1107;48.654;9.250;2023-08-01T08:47:30;5.40;;;5.10;;
2201;SDS011;1107;48.654;9.250;2023-08-01T08:50:03;5.10;;;4.63;;
2201;SDS011;1107;48.654;9.250;2023-08-01T08:52:32;8.70;;;4.43;;
2201;SDS011;1107;48.654;9.250;2023-08-01T08:54:59;5.00;;;4.80;;
2201;SDS011;1107;48.654;9.250;2023-08-01T08:57:28;4.27;;;4.07;;
2201;SDS011;1107;48.654;9.250;2023-08-01T08:59:56;3.93;;;3.73;;
2201;SDS011;1107;48.654;9.250;2023-08-01T09:02:23;4.53;;;4.23;;
2201;SDS011;1107;48.654;9.250;2023-08-01T09:04:50;4.10;;;3.90;;
2201;SDS011;1107;48.654;9.250;2023-08-01T09:07:19;4.60;;;4.30;;
2201;SDS011;1107;48.654;9.250;2023-08-01T09:09:53;3.30;;;3.10;;
2201;SDS011;1107;48.654;9.250;2023-08-01T09:12:20;3.80;;;3.60;;
2201;SDS011;1107;48.654;9.250;2023-08-01T09:14:48;3.50;;;3.20;;
2201;SDS011;1107;48.654;9.250;2023-08-01T09:17:18;3.72;;;3.53;;
2201;SDS011;1107;48.654;9.250;2023-08-01T09:19:44;3.60;;;3.40;;
2201;SDS011;1107;48.654;9.250;2023-08-01T09:22:11;3.60;;;3.40;;
2201;SDS011;1107;48.654;9.250;2023-08-01T09:24:49;3.23;;;3.03;;
2201;SDS011;1107;48.654;9.250;2023-08-01T09:27:17;3.60;;;3.40;;
2201;SDS011;1107;48.654;9.250;2023-08-01T09:29:44;3.20;;;2.90;;
2201;SDS011;1107;48.654;9.250;2023-08-01T09:32:12;3.10;;;2.90;;
2201;SDS011;1107;48.654;9.250;2023-08-01T09:34:40;3.40;;;3.20;;
2201;SDS011;1107;48.654;9.250;2023-08-01T09:37:08;3.27;;;3.07;;
2201;SDS011;1107;48.654;9.250;2023-08-01T09:39:35;3.10;;;2.90;;
2201;SDS011;1107;48.654;9.250;2023-08-01T09:42:04;2.70;;;2.50;;
2201;SDS011;1107;48.654;9.250;2023-08-01T09:44:31;2.83;;;2.60;;
2201;SDS011;1107;48.654;9.250;2023-08-01T09:47:02;4.00;;;2.57;;
2201;SDS011;1107;48.654;9.250;2023-08-01T09:49:30;2.43;;;2.23;;
2201;SDS011;1107;48.654;9.250;2023-08-01T09:51:57;2.50;;;2.30;;
2201;SDS011;1107;48.654;9.250;2023-08-01T09:54:26;2.60;;;2.40;;
2201;SDS011;1107;48.654;9.250;2023-08-01T09:56:53;2.50;;;2.30;;
2201;SDS011;1107;48.654;9.250;2023-08-01T09:59:23;2.93;;;2.73;;
2201;SDS011;1107;48.654;9.250;2023-08-01T10:01:51;5.20;;;2.53;;
2201;SDS011;1107;48.654;9.250;2023-08-01T10:04:20;3.17;;;2.97;;
2201;SDS011;1107;48.654;9.250;2023-08-01T10:06:57;2.10;;;2.00;;
2201;SDS011;1107;48.654;9.250;2023-08-01T10:09:25;2.70;;;2.50;;
2201;SDS011;1107;48.654;9.250;2023-08-01T10:11:52;2.80;;;2.60;;
2201;SDS011;1107;48.654;9.250;2023-08-01T10:14:24;2.33;;;2.10;;
2201;SDS011;1107;48.654;9.250;2023-08-01T10:16:52;2.40;;;2.20;;
2201;SDS011;1107;48.654;9.250;2023-08-01T10:19:20;2.50;;;2.30;;
2201;SDS011;1107;48.654;9.250;2023-08-01T10:21:48;2.47;;;2.27;;
2201;SDS011;1107;48.654;9.250;2023-08-01T10:24:15;3.30;;;3.00;;
2201;SDS011;1107;48.654;9.250;2023-08-01T10:26:44;3.00;;;2.80;;
2201;SDS011;1107;48.654;9.250;2023-08-01T10:29:11;2.60;;;2.40;;
2201;SDS011;1107;48.654;9.250;2023-08-01T10:31:49;2.97;;;2.67;;
2201;SDS011;1107;48.654;9.250;2023-08-01T10:34:17;2.67;;;2.47;;
2201;SDS011;1107;48.654;9.250;2023-08-01T10:36:53;2.50;;;2.30;;
2201;SDS011;1107;48.654;9.250;2023-08-01T10:39:20;4.43;;;2.47;;
2201;SDS011;1107;48.654;9.250;2023-08-01T10:41:49;2.93;;;2.67;;
2201;SDS011;1107;48.654;9.250;2023-08-01T10:44:23;3.43;;;2.40;;
2201;SDS011;1107;48.654;9.250;2023-08-01T10:46:52;2.47;;;2.27;;
2201;SDS011;1107;48.654;9.250;2023-08-01T10:49:31;6.50;;;2.23;;
2201;SDS011;1107;48.654;9.250;2023-08-01T10:52:00;2.63;;;1.60;;
2201;SDS011;1107;48.654;9.250;2023-08-01T10:54:27;1.57;;;1.30;;
2201;SDS011;1107;48.654;9.250;2023-08-01T10:56:54;1.60;;;1.30;;
2201;SDS011;1107;48.654;9.250;2023-08-01T10:59:23;1.60;;;1.20;;
2201;SDS011;1107;48.654;9.250;2023-08-01T11:01:52;1.90;;;1.30;;
2201;SDS011;1107;48.654;9.250;2023-08-01T11:04:20;1.50;;;1.23;;
2201;SDS011;1107;48.654;9.250;2023-08-01T11:06:48;1.83;;;1.50;;
2201;SDS011;1107;48.654;9.250;2023-08-01T11:09:16;1.90;;;1.10;;
2201;SDS011;1107;48.654;9.250;2023-08-01T11:11:44;1.70;;;1.17;;
2201;SDS011;1107;48.654;9.250;2023-08-01T11:14:12;1.50;;;1.03;;
2201;SDS011;1107;48.654;9.250;2023-08-01T11:16:39;1.50;;;1.13;;
2201;SDS011;1107;48.654;9.250;2023-08-01T11:19:18;1.50;;;0.90;;
2201;SDS011;1107;48.654;9.250;2023-08-01T11:21:46;1.40;;;0.80;;
2201;SDS011;1107;48.654;9.250;2023-08-01T11:24:13;1.43;;;0.90;;
2201;SDS011;1107;48.654;9.250;2023-08-01T11:26:41;1.40;;;0.87;;
2201;SDS011;1107;48.654;9.250;2023-08-01T11:29:09;2.00;;;0.90;;
2201;SDS011;1107;48.654;9.250;2023-08-01T11:31:37;1.40;;;0.83;;
2201;SDS011;1107;48.654;9.250;2023-08-01T11:34:04;1.40;;;1.10;;
2201;SDS011;1107;48.654;9.250;2023-08-01T11:36:34;1.53;;;1.13;;
2201;SDS011;1107;48.654;9.250;2023-08-01T11:39:02;1.83;;;1.63;;
2201;SDS011;1107;48.654;9.250;2023-08-01T11:41:29;1.50;;;1.10;;
2201;SDS011;1107;48.654;9.250;2023-08-01T11:44:00;1.40;;;1.10;;
2201;SDS011;1107;48.654;9.250;2023-08-01T11:46:30;1.90;;;1.30;;
2201;SDS011;1107;48.654;9.250;2023-08-01T11:48:58;1.53;;;1.23;;
2201;SDS011;1107;48.654;9.250;2023-08-01T11:51:26;1.70;;;1.40;;
2201;SDS011;1107;48.654;9.250;2023-08-01T11:54:01;1.50;;;1.20;;
2201;SDS011;1107;48.654;9.250;2023-08-01T11:56:29;1.60;;;1.37;;
2201;SDS011;1107;48.654;9.250;2023-08-01T11:58:56;2.13;;;1.13;;
2201;SDS011;1107;48.654;9.250;2023-08-01T12:01:24;1.50;;;1.40;;
2201;SDS011;1107;48.654;9.250;2023-08-01T12:03:52;1.60;;;1.40;;
2201;SDS011;1107;48.654;9.250;2023-08-01T12:06:21;1.60;;;1.20;;
2201;SDS011;1107;48.654;9.250;2023-08-01T12:08:50;1.67;;;1.30;;
2201;SDS011;1107;48.654;9.250;2023-08-01T12:11:20;1.50;;;1.30;;
2201;SDS011;1107;48.654;9.250;2023-08-01T12:13:47;1.80;;;1.70;;
2201;SDS011;1107;48.654;9.250;2023-08-01T12:16:14;1.93;;;1.70;;
2201;SDS011;1107;48.654;9.250;2023-08-01T12:18:45;2.03;;;1.43;;
2201;SDS011;1107;48.654;9.250;2023-08-01T12:21:13;1.70;;;1.53;;
2201;SDS011;1107;48.654;9.250;2023-08-01T12:23:40;1.60;;;1.30;;
2201;SDS011;1107;48.654;9.250;2023-08-01T12:26:07;4.70;;;1.60;;
2201;SDS011;1107;48.654;9.250;2023-08-01T12:28:36;2.37;;;1.50;;
2201;SDS011;1107;48.654;9.250;2023-08-01T12:31:03;3.87;;;1.23;;
2201;SDS011;1107;48.654;9.250;2023-08-01T12:33:30;4.67;;;1.43;;
2201;SDS011;1107;48.654;9.250;2023-08-01T12:35:59;1.57;;;1.30;;
2201;SDS011;1107;48.654;9.250;2023-08-01T12:38:26;1.60;;;1.30;;
2201;SDS011;1107;48.654;9.250;2023-08-01T12:40:53;1.40;;;1.10;;
2201;SDS011;1107;48.654;9.250;2023-08-01T12:43:20;1.60;;;1.30;;
2201;SDS011;1107;48.654;9.250;2023-08-01T12:45:49;1.73;;;1.57;;
2201;SDS011;1107;48.654;9.250;2023-08-01T12:48:15;1.50;;;1.40;;
2201;SDS011;1107;48.654;9.250;2023-08-01T12:50:43;1.87;;;1.50;;
2201;SDS011;1107;48.654;9.250;2023-08-01T12:53:11;1.47;;;1.37;;
2201;SDS011;1107;48.654;9.250;2023-08-01T12:55:38;1.50;;;1.30;;
2201;SDS011;1107;48.654;9.250;2023-08-01T12:58:05;2.90;;;1.50;;
2201;SDS011;1107;48.654;9.250;2023-08-01T13:00:33;2.23;;;1.20;;
2201;SDS011;1107;48.654;9.250;2023-08-01T13:03:01;6.43;;;1.60;;
2201;SDS011;1107;48.654;9.250;2023-08-01T13:05:29;1.60;;;1.33;;
2201;SDS011;1107;48.654;9.250;2023-08-01T13:07:55;2.03;;;1.70;;
2201;SDS011;1107;48.654;9.250;2023-08-01T13:10:22;1.60;;;1.50;;
2201;SDS011;1107;48.654;9.250;2023-08-01T13:12:49;1.50;;;1.30;;
2201;SDS011;1107;48.654;9.250;2023-08-01T13:15:16;1.70;;;1.40;;
2201;SDS011;1107;48.654;9.250;2023-08-01T13:17:43;3.10;;;1.50;;
2201;SDS011;1107;48.654;9.250;2023-08-01T13:20:12;1.70;;;1.50;;
2201;SDS011;1107;48.654;9.250;2023-08-01T13:22:39;3.77;;;1.63;;
2201;SDS011;1107;48.654;9.250;2023-08-01T13:25:06;1.60;;;1.30;;
2201;SDS011;1107;48.654;9.250;2023-08-01T13:27:34;1.53;;;1.43;;
2201;SDS011;1107;48.654;9.250;2023-08-01T13:30:02;1.63;;;1.40;;
2201;SDS011;1107;48.654;9.250;2023-08-01T13:32:29;1.60;;;1.50;;
2201;SDS011;1107;48.654;9.250;2023-08-01T13:34:56;1.60;;;1.30;;
2201;SDS011;1107;48.654;9.250;2023-08-01T13:37:24;1.90;;;1.53;;
2201;SDS011;1107;48.654;9.250;2023-08-01T13:39:51;1.97;;;1.63;;
2201;SDS011;1107;48.654;9.250;2023-08-01T13:42:18;1.80;;;1.53;;
2201;SDS011;1107;48.654;9.250;2023-08-01T13:44:48;2.00;;;1.40;;
2201;SDS011;1107;48.654;9.250;2023-08-01T13:47:15;1.63;;;1.50;;
2201;SDS011;1107;48.654;9.250;2023-08-01T13:49:42;1.60;;;1.50;;
2201;SDS011;1107;48.654;9.250;2023-08-01T13:52:09;1.60;;;1.50;;
2201;SDS011;1107;48.654;9.250;2023-08-01T13:54:37;2.20;;;1.90;;
2201;SDS011;1107;48.654;9.250;2023-08-01T13:57:04;2.47;;;1.90;;
2201;SDS011;1107;48.654;9.250;2023-08-01T13:59:32;1.63;;;1.53;;
2201;SDS011;1107;48.654;9.250;2023-08-01T14:01:59;2.37;;;1.60;;
2201;SDS011;1107;48.654;9.250;2023-08-01T14:04:25;3.93;;;1.43;;
2201;SDS011;1107;48.654;9.250;2023-08-01T14:06:52;2.17;;;1.43;;
2201;SDS011;1107;48.654;9.250;2023-08-01T14:09:20;1.60;;;1.40;;
2201;SDS011;1107;48.654;9.250;2023-08-01T14:11:48;3.30;;;1.40;;
2201;SDS011;1107;48.654;9.250;2023-08-01T14:14:15;3.33;;;1.90;;
2201;SDS011;1107;48.654;9.250;2023-08-01T14:16:42;1.80;;;1.70;;
2201;SDS011;1107;48.654;9.250;2023-08-01T14:19:09;1.73;;;1.40;;
2201;SDS011;1107;48.654;9.250;2023-08-01T14:21:36;1.63;;;1.53;;
2201;SDS011;1107;48.654;9.250;2023-08-01T14:24:03;1.90;;;1.70;;
2201;SDS011;1107;48.654;9.250;2023-08-01T14:26:30;3.40;;;1.90;;
2201;SDS011;1107;48.654;9.250;2023-08-01T14:28:58;2.03;;;1.87;;
2201;SDS011;1107;48.654;9.250;2023-08-01T14:31:25;1.60;;;1.50;;
2201;SDS011;1107;48.654;9.250;2023-08-01T14:33:52;2.87;;;1.70;;
2201;SDS011;1107;48.654;9.250;2023-08-01T14:36:19;2.53;;;1.60;;
2201;SDS011;1107;48.654;9.250;2023-08-01T14:38:46;2.90;;;1.60;;
2201;SDS011;1107;48.654;9.250;2023-08-01T14:41:19;1.70;;;1.60;;
2201;SDS011;1107;48.654;9.250;2023-08-01T14:43:46;1.80;;;1.60;;
2201;SDS011;1107;48.654;9.250;2023-08-01T14:46:14;1.70;;;1.60;;
2201;SDS011;1107;48.654;9.250;2023-08-01T14:48:41;3.00;;;1.90;;
2201;SDS011;1107;48.654;9.250;2023-08-01T14:51:08;2.20;;;1.63;;
2201;SDS011;1107;48.654;9.250;2023-08-01T14:53:35;1.67;;;1.57;;
2201;SDS011;1107;48.654;9.250;2023-08-01T14:56:02;1.83;;;1.60;;
2201;SDS011;1107;48.654;9.250;2023-08-01T14:58:31;3.10;;;1.90;;
2201;SDS011;1107;48.654;9.250;2023-08-01T15:01:04;1.80;;;1.70;;
2201;SDS011;1107;48.654;9.250;2023-08-01T15:03:32;1.93;;;1.73;;
2201;SDS011;1107;48.654;9.250;2023-08-01T15:06:04;1.70;;;1.57;;
2201;SDS011;1107;48.654;9.250;2023-08-01T15:08:32;1.87;;;1.60;;
2201;SDS011;1107;48.654;9.250;2023-08-01T15:11:01;1.90;;;1.60;;
2201;SDS011;1107;48.654;9.250;2023-08-01T15:13:29;1.40;;;1.27;;
2201;SDS011;1107;48.654;9.250;2023-08-01T15:15:57;1.60;;;1.50;;
2201;SDS011;1107;48.654;9.250;2023-08-01T15:18:23;6.20;;;1.80;;